sensor_id;sensor_type;location;lat;lon;timestamp;pressure;altitude;pressure_sealevel;temperature
74539;BMP180;66042;51.090;-115.340;2023-01-28T00:00:15;86398.00;;;-4.86
74539;BMP180;66042;51.090;-115.340;2023-01-28T00:02:42;86395.60;;;-5.00
74539;BMP180;66042;51.090;-115.340;2023-01-28T00:05:10;86411.60;;;-5.10
74539;BMP180;66042;51.090;-115.340;2023-01-28T00:07:37;86406.80;;;-5.10
74539;BMP180;66042;51.090;-115.340;2023-01-28T00:10:04;86411.40;;;-5.20
74539;BMP180;66042;51.090;-115.340;2023-01-28T00:12:31;86422.00;;;-5.20
74539;BMP180;66042;51.090;-115.340;2023-01-28T00:14:58;86429.40;;;-5.22
74539;BMP180;66042;51.090;-115.340;2023-01-28T00:17:25;86430.80;;;-5.28
74539;BMP180;66042;51.090;-115.340;2023-01-28T00:19:53;86428.00;;;-5.30
74539;BMP180;66042;51.090;-115.340;2023-01-28T00:22:19;86431.60;;;-5.30
74539;BMP180;66042;51.090;-115.340;2023-01-28T00:24:46;86440.00;;;-5.40
74539;BMP180;66042;51.090;-115.340;2023-01-28T00:27:13;86438.20;;;-5.48
74539;BMP180;66042;51.090;-115.340;2023-01-28T00:29:40;86439.40;;;-5.50
74539;BMP180;66042;51.090;-115.340;2023-01-28T00:32:07;86450.40;;;-5.50
74539;BMP180;66042;51.090;-115.340;2023-01-28T00:34:34;86451.80;;;-5.60
74539;BMP180;66042;51.090;-115.340;2023-01-28T00:37:01;86460.00;;;-5.60
74539;BMP180;66042;51.090;-115.340;2023-01-28T00:39:28;86462.80;;;-5.60
74539;BMP180;66042;51.090;-115.340;2023-01-28T00:41:55;86467.20;;;-5.64
74539;BMP180;66042;51.090;-115.340;2023-01-28T00:44:22;86469.60;;;-5.70
74539;BMP180;66042;51.090;-115.340;2023-01-28T00:46:49;86469.20;;;-5.80
74539;BMP180;66042;51.090;-115.340;2023-01-28T00:49:16;86467.40;;;-5.90
74539;BMP180;66042;51.090;-115.340;2023-01-28T00:51:43;86461.80;;;-6.00
74539;BMP180;66042;51.090;-115.340;2023-01-28T00:54:12;86461.40;;;-5.98
74539;BMP180;66042;51.090;-115.340;2023-01-28T00:56:38;86460.60;;;-6.00
74539;BMP180;66042;51.090;-115.340;2023-01-28T00:59:06;86468.80;;;-6.10
74539;BMP180;66042;51.090;-115.340;2023-01-28T01:01:33;86466.40;;;-6.10
74539;BMP180;66042;51.090;-115.340;2023-01-28T01:04:00;86475.80;;;-6.10
74539;BMP180;66042;51.090;-115.340;2023-01-28T01:06:37;86478.40;;;-6.10
74539;BMP180;66042;51.090;-115.340;2023-01-28T01:09:09;86475.20;;;-6.16
74539;BMP180;66042;51.090;-115.340;2023-01-28T01:11:37;86469.60;;;-6.20
74539;BMP180;66042;51.090;-115.340;2023-01-28T01:14:03;86478.40;;;-6.30
74539;BMP180;66042;51.090;-115.340;2023-01-28T01:16:32;86480.00;;;-6.40
74539;BMP180;66042;51.090;-115.340;2023-01-28T01:19:02;86484.80;;;-6.40
74539;BMP180;66042;51.090;-115.340;2023-01-28T01:21:30;86488.40;;;-6.40
74539;BMP180;66042;51.090;-115.340;2023-01-28T01:23:58;86497.40;;;-6.50
74539;BMP180;66042;51.090;-115.340;2023-01-28T01:26:25;86499.60;;;-6.60
74539;BMP180;66042;51.090;-115.340;2023-01-28T01:28:52;86501.40;;;-6.60
74539;BMP180;66042;51.090;-115.340;2023-01-28T01:31:21;86504.00;;;-6.68
74539;BMP180;66042;51.090;-115.340;2023-01-28T01:33:51;86509.60;;;-6.70
74539;BMP180;66042;51.090;-115.340;2023-01-28T01:36:19;86499.80;;;-6.80
74539;BMP180;66042;51.090;-115.340;2023-01-28T01:38:47;86498.00;;;-6.90
74539;BMP180;66042;51.090;-115.340;2023-01-28T01:41:28;86499.40;;;-6.90
74539;BMP180;66042;51.090;-115.340;2023-01-28T01:44:04;86499.00;;;-6.90
74539;BMP180;66042;51.090;-115.340;2023-01-28T01:46:33;86498.00;;;-6.90
74539;BMP180;66042;51.090;-115.340;2023-01-28T01:51:51;86506.80;;;-7.00
74539;BMP180;66042;51.090;-115.340;2023-01-28T01:54:23;86507.00;;;-7.06
74539;BMP180;66042;51.090;-115.340;2023-01-28T01:56:53;86511.20;;;-7.10
74539;BMP180;66042;51.090;-115.340;2023-01-28T01:59:32;86508.20;;;-7.10
74539;BMP180;66042;51.090;-115.340;2023-01-28T02:02:04;86507.40;;;-7.10
74539;BMP180;66042;51.090;-115.340;2023-01-28T02:04:42;86501.80;;;-7.10
74539;BMP180;66042;51.090;-115.340;2023-01-28T02:07:14;86505.40;;;-7.10
74539;BMP180;66042;51.090;-115.340;2023-01-28T02:09:43;86515.60;;;-7.10
74539;BMP180;66042;51.090;-115.340;2023-01-28T02:12:21;86515.00;;;-7.10
74539;BMP180;66042;51.090;-115.340;2023-01-28T02:14:55;86513.20;;;-7.16
74539;BMP180;66042;51.090;-115.340;2023-01-28T02:17:24;86521.60;;;-7.20
74539;BMP180;66042;51.090;-115.340;2023-01-28T02:20:18;86528.80;;;-7.20
74539;BMP180;66042;51.090;-115.340;2023-01-28T02:28:58;86534.60;;;-7.40
74539;BMP180;66042;51.090;-115.340;2023-01-28T02:31:57;86536.40;;;-7.40
74539;BMP180;66042;51.090;-115.340;2023-01-28T02:34:44;86542.60;;;-7.40
74539;BMP180;66042;51.090;-115.340;2023-01-28T02:37:20;86547.20;;;-7.30
74539;BMP180;66042;51.090;-115.340;2023-01-28T02:39:57;86546.00;;;-7.30
74539;BMP180;66042;51.090;-115.340;2023-01-28T02:42:31;86552.00;;;-7.40
74539;BMP180;66042;51.090;-115.340;2023-01-28T02:45:00;86560.80;;;-7.40
74539;BMP180;66042;51.090;-115.340;2023-01-28T02:47:27;86563.60;;;-7.46
74539;BMP180;66042;51.090;-115.340;2023-01-28T02:50:16;86570.80;;;-7.50
74539;BMP180;66042;51.090;-115.340;2023-01-28T02:59:25;86575.60;;;-7.70
74539;BMP180;66042;51.090;-115.340;2023-01-28T03:05:17;86573.20;;;-7.70
74539;BMP180;66042;51.090;-115.340;2023-01-28T03:07:48;86573.40;;;-7.70
74539;BMP180;66042;51.090;-115.340;2023-01-28T03:10:20;86567.60;;;-7.70
74539;BMP180;66042;51.090;-115.340;2023-01-28T03:12:53;86568.80;;;-7.70
74539;BMP180;66042;51.090;-115.340;2023-01-28T03:15:48;86580.20;;;-7.70
74539;BMP180;66042;51.090;-115.340;2023-01-28T03:18:46;86580.20;;;-7.74
74539;BMP180;66042;51.090;-115.340;2023-01-28T03:21:37;86583.80;;;-7.80
74539;BMP180;66042;51.090;-115.340;2023-01-28T03:24:32;86588.40;;;-7.90
74539;BMP180;66042;51.090;-115.340;2023-01-28T03:27:55;86599.00;;;-7.90
74539;BMP180;66042;51.090;-115.340;2023-01-28T03:31:08;86604.60;;;-8.00
74539;BMP180;66042;51.090;-115.340;2023-01-28T03:33:56;86608.40;;;-8.00
74539;BMP180;66042;51.090;-115.340;2023-01-28T03:36:42;86608.00;;;-8.00
74539;BMP180;66042;51.090;-115.340;2023-01-28T03:39:26;86609.40;;;-8.00
74539;BMP180;66042;51.090;-115.340;2023-01-28T03:44:27;86622.40;;;-8.00
74539;BMP180;66042;51.090;-115.340;2023-01-28T03:47:12;86629.20;;;-8.00
74539;BMP180;66042;51.090;-115.340;2023-01-28T03:49:46;86623.40;;;-8.00
74539;BMP180;66042;51.090;-115.340;2023-01-28T03:52:20;86628.60;;;-8.00
74539;BMP180;66042;51.090;-115.340;2023-01-28T03:54:47;86634.60;;;-8.00
74539;BMP180;66042;51.090;-115.340;2023-01-28T03:57:26;86638.60;;;-8.00
74539;BMP180;66042;51.090;-115.340;2023-01-28T03:59:56;86632.60;;;-8.00
74539;BMP180;66042;51.090;-115.340;2023-01-28T04:02:23;86640.00;;;-8.00
74539;BMP180;66042;51.090;-115.340;2023-01-28T04:04:52;86650.40;;;-8.10
74539;BMP180;66042;51.090;-115.340;2023-01-28T04:07:19;86653.80;;;-8.10
74539;BMP180;66042;51.090;-115.340;2023-01-28T04:09:46;86656.60;;;-8.10
74539;BMP180;66042;51.090;-115.340;2023-01-28T04:12:13;86655.20;;;-8.20
74539;BMP180;66042;51.090;-115.340;2023-01-28T04:14:41;86666.40;;;-8.20
74539;BMP180;66042;51.090;-115.340;2023-01-28T04:17:08;86660.60;;;-8.26
74539;BMP180;66042;51.090;-115.340;2023-01-28T04:19:36;86657.20;;;-8.30
74539;BMP180;66042;51.090;-115.340;2023-01-28T04:22:09;86669.60;;;-8.30
74539;BMP180;66042;51.090;-115.340;2023-01-28T04:24:37;86665.00;;;-8.40
74539;BMP180;66042;51.090;-115.340;2023-01-28T04:27:05;86674.20;;;-8.40
74539;BMP180;66042;51.090;-115.340;2023-01-28T04:29:31;86678.80;;;-8.50
74539;BMP180;66042;51.090;-115.340;2023-01-28T04:31:58;86679.80;;;-8.50
74539;BMP180;66042;51.090;-115.340;2023-01-28T04:34:25;86677.60;;;-8.66
74539;BMP180;66042;51.090;-115.340;2023-01-28T04:36:52;86678.00;;;-8.70
74539;BMP180;66042;51.090;-115.340;2023-01-28T04:39:19;86685.00;;;-8.80
74539;BMP180;66042;51.090;-115.340;2023-01-28T04:41:47;86684.00;;;-8.80
74539;BMP180;66042;51.090;-115.340;2023-01-28T04:44:14;86688.20;;;-8.80
74539;BMP180;66042;51.090;-115.340;2023-01-28T04:46:42;86691.60;;;-8.90
74539;BMP180;66042;51.090;-115.340;2023-01-28T04:49:09;86692.20;;;-9.00
74539;BMP180;66042;51.090;-115.340;2023-01-28T04:51:36;86697.60;;;-9.10
74539;BMP180;66042;51.090;-115.340;2023-01-28T04:54:03;86705.00;;;-9.20
74539;BMP180;66042;51.090;-115.340;2023-01-28T04:56:31;86707.00;;;-9.30
74539;BMP180;66042;51.090;-115.340;2023-01-28T04:58:58;86710.40;;;-9.30
74539;BMP180;66042;51.090;-115.340;2023-01-28T05:01:25;86713.40;;;-9.20
74539;BMP180;66042;51.090;-115.340;2023-01-28T05:03:52;86710.20;;;-9.20
74539;BMP180;66042;51.090;-115.340;2023-01-28T05:06:19;86711.20;;;-9.30
74539;BMP180;66042;51.090;-115.340;2023-01-28T05:08:47;86712.00;;;-9.30
74539;BMP180;66042;51.090;-115.340;2023-01-28T05:11:14;86714.20;;;-9.40
74539;BMP180;66042;51.090;-115.340;2023-01-28T05:13:41;86721.00;;;-9.44
74539;BMP180;66042;51.090;-115.340;2023-01-28T05:16:08;86706.00;;;-9.60
74539;BMP180;66042;51.090;-115.340;2023-01-28T05:18:35;86709.20;;;-9.70
74539;BMP180;66042;51.090;-115.340;2023-01-28T05:21:02;86715.80;;;-9.70
74539;BMP180;66042;51.090;-115.340;2023-01-28T05:23:29;86723.40;;;-9.80
74539;BMP180;66042;51.090;-115.340;2023-01-28T05:25:57;86731.80;;;-9.80
74539;BMP180;66042;51.090;-115.340;2023-01-28T05:28:24;86738.00;;;-9.90
74539;BMP180;66042;51.090;-115.340;2023-01-28T05:30:51;86744.80;;;-9.90
74539;BMP180;66042;51.090;-115.340;2023-01-28T05:33:19;86749.00;;;-10.00
74539;BMP180;66042;51.090;-115.340;2023-01-28T05:35:46;86747.40;;;-10.06
74539;BMP180;66042;51.090;-115.340;2023-01-28T05:38:15;86754.20;;;-10.00
74539;BMP180;66042;51.090;-115.340;2023-01-28T05:40:42;86759.80;;;-10.08
74539;BMP180;66042;51.090;-115.340;2023-01-28T05:43:09;86752.20;;;-10.10
74539;BMP180;66042;51.090;-115.340;2023-01-28T05:45:36;86758.60;;;-10.20
74539;BMP180;66042;51.090;-115.340;2023-01-28T05:48:03;86760.60;;;-10.20
74539;BMP180;66042;51.090;-115.340;2023-01-28T05:50:30;86759.00;;;-10.22
74539;BMP180;66042;51.090;-115.340;2023-01-28T05:52:58;86755.80;;;-10.20
74539;BMP180;66042;51.090;-115.340;2023-01-28T05:55:25;86758.80;;;-10.24
74539;BMP180;66042;51.090;-115.340;2023-01-28T05:57:52;86763.00;;;-10.30
74539;BMP180;66042;51.090;-115.340;2023-01-28T06:00:19;86766.20;;;-10.42
74539;BMP180;66042;51.090;-115.340;2023-01-28T06:02:47;86762.60;;;-10.40
74539;BMP180;66042;51.090;-115.340;2023-01-28T06:05:13;86765.20;;;-10.50
74539;BMP180;66042;51.090;-115.340;2023-01-28T06:07:45;86770.00;;;-10.60
74539;BMP180;66042;51.090;-115.340;2023-01-28T06:10:13;86777.60;;;-10.70
74539;BMP180;66042;51.090;-115.340;2023-01-28T06:12:41;86771.00;;;-10.80
74539;BMP180;66042;51.090;-115.340;2023-01-28T06:15:09;86775.80;;;-10.90
74539;BMP180;66042;51.090;-115.340;2023-01-28T06:17:36;86779.80;;;-10.90
74539;BMP180;66042;51.090;-115.340;2023-01-28T06:20:04;86786.20;;;-11.00
74539;BMP180;66042;51.090;-115.340;2023-01-28T06:22:31;86793.00;;;-11.02
74539;BMP180;66042;51.090;-115.340;2023-01-28T06:24:57;86793.60;;;-11.10
74539;BMP180;66042;51.090;-115.340;2023-01-28T06:27:24;86798.40;;;-11.10
74539;BMP180;66042;51.090;-115.340;2023-01-28T06:29:51;86799.20;;;-11.20
74539;BMP180;66042;51.090;-115.340;2023-01-28T06:32:18;86797.40;;;-11.30
74539;BMP180;66042;51.090;-115.340;2023-01-28T06:34:46;86802.60;;;-11.30
74539;BMP180;66042;51.090;-115.340;2023-01-28T06:37:13;86805.00;;;-11.30
74539;BMP180;66042;51.090;-115.340;2023-01-28T06:39:40;86809.60;;;-11.40
74539;BMP180;66042;51.090;-115.340;2023-01-28T06:42:07;86815.80;;;-11.40
74539;BMP180;66042;51.090;-115.340;2023-01-28T06:44:34;86816.60;;;-11.40
74539;BMP180;66042;51.090;-115.340;2023-01-28T06:47:01;86818.40;;;-11.48
74539;BMP180;66042;51.090;-115.340;2023-01-28T06:49:28;86825.00;;;-11.50
74539;BMP180;66042;51.090;-115.340;2023-01-28T06:51:55;86826.20;;;-11.60
74539;BMP180;66042;51.090;-115.340;2023-01-28T06:54:22;86837.20;;;-11.60
74539;BMP180;66042;51.090;-115.340;2023-01-28T06:56:48;86840.40;;;-11.52
74539;BMP180;66042;51.090;-115.340;2023-01-28T06:59:15;86842.80;;;-11.50
74539;BMP180;66042;51.090;-115.340;2023-01-28T07:01:42;86839.80;;;-11.60
74539;BMP180;66042;51.090;-115.340;2023-01-28T07:04:09;86847.60;;;-11.60
74539;BMP180;66042;51.090;-115.340;2023-01-28T07:06:36;86841.20;;;-11.60
74539;BMP180;66042;51.090;-115.340;2023-01-28T07:09:03;86845.80;;;-11.60
74539;BMP180;66042;51.090;-115.340;2023-01-28T07:11:30;86842.80;;;-11.60
74539;BMP180;66042;51.090;-115.340;2023-01-28T07:13:57;86846.00;;;-11.60
74539;BMP180;66042;51.090;-115.340;2023-01-28T07:16:24;86840.60;;;-11.70
74539;BMP180;66042;51.090;-115.340;2023-01-28T07:18:51;86849.60;;;-11.70
74539;BMP180;66042;51.090;-115.340;2023-01-28T07:21:18;86848.80;;;-11.74
74539;BMP180;66042;51.090;-115.340;2023-01-28T07:23:45;86850.80;;;-11.80
74539;BMP180;66042;51.090;-115.340;2023-01-28T07:26:11;86852.00;;;-11.80
74539;BMP180;66042;51.090;-115.340;2023-01-28T07:28:39;86853.00;;;-11.90
74539;BMP180;66042;51.090;-115.340;2023-01-28T07:31:07;86857.80;;;-11.90
74539;BMP180;66042;51.090;-115.340;2023-01-28T07:33:33;86860.40;;;-11.92
74539;BMP180;66042;51.090;-115.340;2023-01-28T07:36:01;86861.80;;;-12.00
74539;BMP180;66042;51.090;-115.340;2023-01-28T07:38:28;86861.60;;;-12.10
74539;BMP180;66042;51.090;-115.340;2023-01-28T07:40:54;86861.80;;;-12.10
74539;BMP180;66042;51.090;-115.340;2023-01-28T07:43:21;86862.40;;;-12.10
74539;BMP180;66042;51.090;-115.340;2023-01-28T07:45:49;86865.80;;;-12.10
74539;BMP180;66042;51.090;-115.340;2023-01-28T07:48:16;86867.80;;;-12.14
74539;BMP180;66042;51.090;-115.340;2023-01-28T07:50:44;86863.80;;;-12.10
74539;BMP180;66042;51.090;-115.340;2023-01-28T07:53:14;86869.40;;;-12.10
74539;BMP180;66042;51.090;-115.340;2023-01-28T07:55:41;86870.20;;;-12.10
74539;BMP180;66042;51.090;-115.340;2023-01-28T07:58:10;86878.80;;;-12.10
74539;BMP180;66042;51.090;-115.340;2023-01-28T08:00:38;86878.60;;;-12.10
74539;BMP180;66042;51.090;-115.340;2023-01-28T08:03:11;86878.40;;;-12.10
74539;BMP180;66042;51.090;-115.340;2023-01-28T08:05:50;86877.20;;;-12.00
74539;BMP180;66042;51.090;-115.340;2023-01-28T08:08:18;86882.00;;;-12.00
74539;BMP180;66042;51.090;-115.340;2023-01-28T08:10:46;86883.80;;;-12.08
74539;BMP180;66042;51.090;-115.340;2023-01-28T08:13:15;86891.20;;;-12.02
74539;BMP180;66042;51.090;-115.340;2023-01-28T08:15:44;86894.00;;;-12.00
74539;BMP180;66042;51.090;-115.340;2023-01-28T08:18:14;86888.60;;;-12.10
74539;BMP180;66042;51.090;-115.340;2023-01-28T08:20:43;86893.00;;;-12.02
74539;BMP180;66042;51.090;-115.340;2023-01-28T08:23:18;86895.60;;;-12.10
74539;BMP180;66042;51.090;-115.340;2023-01-28T08:25:46;86906.60;;;-12.10
74539;BMP180;66042;51.090;-115.340;2023-01-28T08:28:15;86901.40;;;-12.12
74539;BMP180;66042;51.090;-115.340;2023-01-28T08:30:43;86905.00;;;-12.20
74539;BMP180;66042;51.090;-115.340;2023-01-28T08:33:13;86909.20;;;-12.20
74539;BMP180;66042;51.090;-115.340;2023-01-28T08:35:40;86905.40;;;-12.26
74539;BMP180;66042;51.090;-115.340;2023-01-28T08:38:09;86903.40;;;-12.34
74539;BMP180;66042;51.090;-115.340;2023-01-28T08:40:36;86908.60;;;-12.40
74539;BMP180;66042;51.090;-115.340;2023-01-28T08:43:04;86909.00;;;-12.50
74539;BMP180;66042;51.090;-115.340;2023-01-28T08:45:31;86909.60;;;-12.50
74539;BMP180;66042;51.090;-115.340;2023-01-28T08:48:02;86909.00;;;-12.62
74539;BMP180;66042;51.090;-115.340;2023-01-28T08:50:36;86909.00;;;-12.70
74539;BMP180;66042;51.090;-115.340;2023-01-28T08:53:11;86908.00;;;-12.78
74539;BMP180;66042;51.090;-115.340;2023-01-28T08:55:38;86905.60;;;-12.90
74539;BMP180;66042;51.090;-115.340;2023-01-28T08:58:10;86909.80;;;-12.90
74539;BMP180;66042;51.090;-115.340;2023-01-28T09:00:37;86912.80;;;-13.00
74539;BMP180;66042;51.090;-115.340;2023-01-28T09:03:06;86922.60;;;-13.10
74539;BMP180;66042;51.090;-115.340;2023-01-28T09:05:37;86923.00;;;-13.20
74539;BMP180;66042;51.090;-115.340;2023-01-28T09:08:08;86926.00;;;-13.20
74539;BMP180;66042;51.090;-115.340;2023-01-28T09:10:36;86932.80;;;-13.20
74539;BMP180;66042;51.090;-115.340;2023-01-28T09:13:07;86933.20;;;-13.30
74539;BMP180;66042;51.090;-115.340;2023-01-28T09:15:35;86941.60;;;-13.30
74539;BMP180;66042;51.090;-115.340;2023-01-28T09:18:04;86935.40;;;-13.40
74539;BMP180;66042;51.090;-115.340;2023-01-28T09:20:32;86937.60;;;-13.40
74539;BMP180;66042;51.090;-115.340;2023-01-28T09:23:00;86945.20;;;-13.36
74539;BMP180;66042;51.090;-115.340;2023-01-28T09:25:28;86944.20;;;-13.30
74539;BMP180;66042;51.090;-115.340;2023-01-28T09:27:56;86947.60;;;-13.40
74539;BMP180;66042;51.090;-115.340;2023-01-28T09:30:24;86948.60;;;-13.40
74539;BMP180;66042;51.090;-115.340;2023-01-28T09:32:53;86960.20;;;-13.40
74539;BMP180;66042;51.090;-115.340;2023-01-28T09:35:20;86962.60;;;-13.34
74539;BMP180;66042;51.090;-115.340;2023-01-28T09:37:48;86964.60;;;-13.34
74539;BMP180;66042;51.090;-115.340;2023-01-28T09:40:40;86972.60;;;-13.30
74539;BMP180;66042;51.090;-115.340;2023-01-28T09:45:57;86978.00;;;-13.20
74539;BMP180;66042;51.090;-115.340;2023-01-28T09:48:31;86974.40;;;-13.20
74539;BMP180;66042;51.090;-115.340;2023-01-28T09:51:01;86980.40;;;-13.20
74539;BMP180;66042;51.090;-115.340;2023-01-28T09:53:42;86980.20;;;-13.18
74539;BMP180;66042;51.090;-115.340;2023-01-28T09:56:24;86982.60;;;-13.10
74539;BMP180;66042;51.090;-115.340;2023-01-28T09:58:52;86981.60;;;-13.20
74539;BMP180;66042;51.090;-115.340;2023-01-28T10:01:52;86986.00;;;-13.20
74539;BMP180;66042;51.090;-115.340;2023-01-28T10:07:51;86991.00;;;-13.20
74539;BMP180;66042;51.090;-115.340;2023-01-28T10:10:31;86989.00;;;-13.30
74539;BMP180;66042;51.090;-115.340;2023-01-28T10:19:04;86990.60;;;-13.30
74539;BMP180;66042;51.090;-115.340;2023-01-28T10:21:42;86994.80;;;-13.30
74539;BMP180;66042;51.090;-115.340;2023-01-28T10:24:37;86989.60;;;-13.38
74539;BMP180;66042;51.090;-115.340;2023-01-28T10:27:35;87000.20;;;-13.40
74539;BMP180;66042;51.090;-115.340;2023-01-28T10:30:25;87003.20;;;-13.40
74539;BMP180;66042;51.090;-115.340;2023-01-28T10:35:49;87014.20;;;-13.48
74539;BMP180;66042;51.090;-115.340;2023-01-28T10:38:21;87016.40;;;-13.50
74539;BMP180;66042;51.090;-115.340;2023-01-28T10:40:49;87020.40;;;-13.50
74539;BMP180;66042;51.090;-115.340;2023-01-28T10:43:22;87016.40;;;-13.50
74539;BMP180;66042;51.090;-115.340;2023-01-28T10:48:36;87030.40;;;-13.48
74539;BMP180;66042;51.090;-115.340;2023-01-28T10:51:05;87039.20;;;-13.40
74539;BMP180;66042;51.090;-115.340;2023-01-28T10:53:43;87035.60;;;-13.30
74539;BMP180;66042;51.090;-115.340;2023-01-28T10:56:16;87033.20;;;-13.30
74539;BMP180;66042;51.090;-115.340;2023-01-28T11:04:33;87043.40;;;-13.30
74539;BMP180;66042;51.090;-115.340;2023-01-28T11:07:19;87049.60;;;-13.30
74539;BMP180;66042;51.090;-115.340;2023-01-28T11:09:51;87051.60;;;-13.30
74539;BMP180;66042;51.090;-115.340;2023-01-28T11:12:29;87056.80;;;-13.28
74539;BMP180;66042;51.090;-115.340;2023-01-28T11:14:59;87060.80;;;-13.30
74539;BMP180;66042;51.090;-115.340;2023-01-28T11:17:30;87065.00;;;-13.30
74539;BMP180;66042;51.090;-115.340;2023-01-28T11:20:12;87074.60;;;-13.40
74539;BMP180;66042;51.090;-115.340;2023-01-28T11:22:44;87076.20;;;-13.40
74539;BMP180;66042;51.090;-115.340;2023-01-28T11:25:39;87071.80;;;-13.40
74539;BMP180;66042;51.090;-115.340;2023-01-28T11:28:19;87075.60;;;-13.50
74539;BMP180;66042;51.090;-115.340;2023-01-28T11:30:54;87081.40;;;-13.50
74539;BMP180;66042;51.090;-115.340;2023-01-28T11:33:37;87079.00;;;-13.60
74539;BMP180;66042;51.090;-115.340;2023-01-28T11:36:29;87075.80;;;-13.50
74539;BMP180;66042;51.090;-115.340;2023-01-28T11:39:23;87076.20;;;-13.58
74539;BMP180;66042;51.090;-115.340;2023-01-28T11:41:52;87073.80;;;-13.64
74539;BMP180;66042;51.090;-115.340;2023-01-28T11:44:26;87076.20;;;-13.70
74539;BMP180;66042;51.090;-115.340;2023-01-28T11:56:12;87092.60;;;-13.70
74539;BMP180;66042;51.090;-115.340;2023-01-28T12:05:06;87101.80;;;-13.90
74539;BMP180;66042;51.090;-115.340;2023-01-28T12:07:44;87102.60;;;-13.90
74539;BMP180;66042;51.090;-115.340;2023-01-28T12:10:21;87105.20;;;-13.90
74539;BMP180;66042;51.090;-115.340;2023-01-28T12:13:36;87106.60;;;-13.90
74539;BMP180;66042;51.090;-115.340;2023-01-28T12:18:58;87111.40;;;-13.90
74539;BMP180;66042;51.090;-115.340;2023-01-28T12:30:05;87117.80;;;-14.00
74539;BMP180;66042;51.090;-115.340;2023-01-28T12:36:15;87120.20;;;-14.20
74539;BMP180;66042;51.090;-115.340;2023-01-28T12:39:33;87119.80;;;-14.30
74539;BMP180;66042;51.090;-115.340;2023-01-28T12:43:18;87123.00;;;-14.36
74539;BMP180;66042;51.090;-115.340;2023-01-28T12:45:33;87123.00;;;-14.40
74539;BMP180;66042;51.090;-115.340;2023-01-28T12:48:32;87123.80;;;-14.40
74539;BMP180;66042;51.090;-115.340;2023-01-28T12:51:29;87126.80;;;-14.40
74539;BMP180;66042;51.090;-115.340;2023-01-28T12:54:23;87131.00;;;-14.40
74539;BMP180;66042;51.090;-115.340;2023-01-28T12:56:54;87135.00;;;-14.40
74539;BMP180;66042;51.090;-115.340;2023-01-28T13:05:52;87136.80;;;-14.60
74539;BMP180;66042;51.090;-115.340;2023-01-28T13:08:27;87138.20;;;-14.70
74539;BMP180;66042;51.090;-115.340;2023-01-28T13:11:00;87138.40;;;-14.78
74539;BMP180;66042;51.090;-115.340;2023-01-28T13:13:36;87140.00;;;-14.80
74539;BMP180;66042;51.090;-115.340;2023-01-28T13:16:07;87138.00;;;-14.90
74539;BMP180;66042;51.090;-115.340;2023-01-28T13:26:55;87145.80;;;-15.00
74539;BMP180;66042;51.090;-115.340;2023-01-28T13:31:54;87147.40;;;-15.10
74539;BMP180;66042;51.090;-115.340;2023-01-28T13:34:43;87143.60;;;-15.16
74539;BMP180;66042;51.090;-115.340;2023-01-28T13:40:26;87143.80;;;-15.20
74539;BMP180;66042;51.090;-115.340;2023-01-28T13:43:05;87149.20;;;-15.20
74539;BMP180;66042;51.090;-115.340;2023-01-28T13:46:28;87141.60;;;-15.24
74539;BMP180;66042;51.090;-115.340;2023-01-28T13:48:58;87148.00;;;-15.24
74539;BMP180;66042;51.090;-115.340;2023-01-28T13:51:34;87154.20;;;-15.20
74539;BMP180;66042;51.090;-115.340;2023-01-28T13:54:11;87147.00;;;-15.30
74539;BMP180;66042;51.090;-115.340;2023-01-28T14:02:29;87150.80;;;-15.24
74539;BMP180;66042;51.090;-115.340;2023-01-28T14:14:31;87158.40;;;-15.20
74539;BMP180;66042;51.090;-115.340;2023-01-28T14:17:41;87161.00;;;-15.20
74539;BMP180;66042;51.090;-115.340;2023-01-28T14:20:55;87165.20;;;-15.20
74539;BMP180;66042;51.090;-115.340;2023-01-28T14:23:24;87167.20;;;-15.30
74539;BMP180;66042;51.090;-115.340;2023-01-28T14:31:37;87181.00;;;-15.30
74539;BMP180;66042;51.090;-115.340;2023-01-28T14:34:33;87176.40;;;-15.30
74539;BMP180;66042;51.090;-115.340;2023-01-28T14:37:29;87180.80;;;-15.30
74539;BMP180;66042;51.090;-115.340;2023-01-28T14:40:07;87176.00;;;-15.40
74539;BMP180;66042;51.090;-115.340;2023-01-28T14:42:42;87185.00;;;-15.50
74539;BMP180;66042;51.090;-115.340;2023-01-28T14:48:31;87184.00;;;-15.52
74539;BMP180;66042;51.090;-115.340;2023-01-28T14:51:13;87184.00;;;-15.70
74539;BMP180;66042;51.090;-115.340;2023-01-28T14:54:27;87189.80;;;-15.70
74539;BMP180;66042;51.090;-115.340;2023-01-28T14:57:46;87197.80;;;-15.70
74539;BMP180;66042;51.090;-115.340;2023-01-28T14:59:55;87197.20;;;-15.82
74539;BMP180;66042;51.090;-115.340;2023-01-28T15:02:30;87207.80;;;-15.80
74539;BMP180;66042;51.090;-115.340;2023-01-28T15:05:31;87210.40;;;-15.80
74539;BMP180;66042;51.090;-115.340;2023-01-28T15:08:03;87210.80;;;-15.78
74539;BMP180;66042;51.090;-115.340;2023-01-28T15:10:40;87217.00;;;-15.88
74539;BMP180;66042;51.090;-115.340;2023-01-28T15:13:25;87218.20;;;-16.10
74539;BMP180;66042;51.090;-115.340;2023-01-28T15:15:53;87220.00;;;-16.06
74539;BMP180;66042;51.090;-115.340;2023-01-28T15:18:42;87225.00;;;-16.10
74539;BMP180;66042;51.090;-115.340;2023-01-28T15:21:09;87226.80;;;-16.20
74539;BMP180;66042;51.090;-115.340;2023-01-28T15:23:40;87231.40;;;-16.30
74539;BMP180;66042;51.090;-115.340;2023-01-28T15:26:20;87231.60;;;-16.20
74539;BMP180;66042;51.090;-115.340;2023-01-28T15:28:49;87227.60;;;-16.10
74539;BMP180;66042;51.090;-115.340;2023-01-28T15:31:36;87235.60;;;-16.10
74539;BMP180;66042;51.090;-115.340;2023-01-28T15:34:13;87234.60;;;-16.10
74539;BMP180;66042;51.090;-115.340;2023-01-28T15:36:41;87239.20;;;-16.00
74539;BMP180;66042;51.090;-115.340;2023-01-28T15:39:18;87241.80;;;-16.00
74539;BMP180;66042;51.090;-115.340;2023-01-28T15:41:56;87245.00;;;-15.94
74539;BMP180;66042;51.090;-115.340;2023-01-28T15:44:42;87248.20;;;-16.00
74539;BMP180;66042;51.090;-115.340;2023-01-28T15:47:32;87253.60;;;-16.00
74539;BMP180;66042;51.090;-115.340;2023-01-28T15:50:05;87247.80;;;-16.10
74539;BMP180;66042;51.090;-115.340;2023-01-28T15:52:41;87255.80;;;-16.00
74539;BMP180;66042;51.090;-115.340;2023-01-28T15:55:37;87258.20;;;-15.90
74539;BMP180;66042;51.090;-115.340;2023-01-28T15:58:30;87268.00;;;-15.90
74539;BMP180;66042;51.090;-115.340;2023-01-28T16:01:13;87270.40;;;-15.90